Wetterdaten: Woche 22.06.09 - 28.06.09 (KW26)
Datum Zeit Temperatur Luftfeuchte Luftdruck Niederschlag Wind Richtung Sonnenschein Solar Taupunkt Windchill Windben
22.06.2009 00:00 13.2 C 86 % 1020.4 hPa 1.0 l/m 0.1 km/h (0 Bft) W-SW 0.00 h 0 W/m 10.8 C 13.2 C 0.9 km/h (0 Bft)
22.06.2009 01:00 12.5 C 90 % 1020.2 hPa 0.8 l/m 0.1 km/h (0 Bft) O-SO 0.00 h 0 W/m 10.8 C 12.5 C 0.5 km/h (0 Bft)
22.06.2009 02:00 12.2 C 91 % 1019.9 hPa 0.6 l/m 0.0 km/h (0 Bft) O-SO 0.00 h 0 W/m 10.8 C 12.2 C 0.5 km/h (0 Bft)
22.06.2009 03:00 11.8 C 92 % 1019.7 hPa 0.0 l/m 0.0 km/h (0 Bft) N 0.00 h 0 W/m 10.5 C 11.8 C 0.3 km/h (0 Bft)
22.06.2009 04:00 11.3 C 93 % 1019.6 hPa 0.0 l/m 0.4 km/h (0 Bft) O-SO 0.00 h 0 W/m 10.2 C 11.3 C 1.2 km/h (1 Bft)
22.06.2009 05:00 10.7 C 93 % 1020.0 hPa 0.0 l/m 0.0 km/h (0 Bft) S-SO 0.00 h 6 W/m 9.7 C 10.7 C 0.4 km/h (0 Bft)
22.06.2009 06:00 10.6 C 95 % 1020.5 hPa 0.2 l/m 0.4 km/h (0 Bft) S-SO 0.00 h 22 W/m 9.8 C 10.6 C 0.6 km/h (0 Bft)
22.06.2009 07:00 11.0 C 96 % 1021.0 hPa 0.0 l/m 1.0 km/h (0 Bft) O-SO 0.00 h 54 W/m 10.4 C 11.0 C 1.9 km/h (1 Bft)
22.06.2009 08:00 12.2 C 96 % 1021.3 hPa 0.0 l/m 0.6 km/h (0 Bft) W 0.43 h 253 W/m 11.6 C 12.2 C 2.0 km/h (1 Bft)
22.06.2009 09:00 13.6 C 84 % 1021.4 hPa 0.0 l/m 1.3 km/h (1 Bft) N 0.25 h 305 W/m 11.0 C 13.6 C 2.9 km/h (1 Bft)
22.06.2009 10:00 13.5 C 82 % 1021.3 hPa 0.0 l/m 3.0 km/h (1 Bft) W 0.28 h 342 W/m 10.5 C 13.5 C 5.5 km/h (1 Bft)
22.06.2009 11:00 14.4 C 75 % 1021.4 hPa 0.0 l/m 2.9 km/h (1 Bft) O-SO 0.37 h 460 W/m 9.9 C 14.4 C 5.4 km/h (1 Bft)
22.06.2009 12:00 15.9 C 61 % 1021.5 hPa 0.0 l/m 7.8 km/h (2 Bft) N-NW 0.43 h 557 W/m 8.4 C 15.9 C 13.6 km/h (3 Bft)
22.06.2009 13:00 15.9 C 61 % 1021.7 hPa 0.0 l/m 7.9 km/h (2 Bft) N-NW 0.38 h 538 W/m 8.4 C 15.9 C 13.4 km/h (3 Bft)
22.06.2009 14:00 15.3 C 62 % 1021.8 hPa 0.0 l/m 9.9 km/h (2 Bft) N-NW 0.13 h 418 W/m 8.1 C 15.3 C 17.2 km/h (3 Bft)
22.06.2009 15:00 15.8 C 62 % 1021.7 hPa 0.0 l/m 8.2 km/h (2 Bft) N-NW 0.38 h 504 W/m 8.4 C 15.8 C 13.4 km/h (3 Bft)
22.06.2009 16:00 16.7 C 58 % 1021.2 hPa 1.8 l/m 7.4 km/h (2 Bft) SO 0.27 h 405 W/m 8.3 C 16.7 C 12.4 km/h (3 Bft)
22.06.2009 17:00 13.2 C 84 % 1022.1 hPa 0.0 l/m 3.6 km/h (1 Bft) S-SO 0.20 h 277 W/m 10.6 C 13.2 C 7.1 km/h (2 Bft)
22.06.2009 18:00 12.6 C 84 % 1022.7 hPa 0.2 l/m 1.2 km/h (1 Bft) S-SO 0.03 h 118 W/m 9.9 C 12.6 C 3.6 km/h (1 Bft)
22.06.2009 19:00 12.2 C 85 % 1022.8 hPa 0.0 l/m 1.3 km/h (1 Bft) S-SO 0.08 h 69 W/m 9.8 C 12.2 C 3.6 km/h (1 Bft)
22.06.2009 20:00 12.1 C 87 % 1023.0 hPa 0.0 l/m 0.7 km/h (0 Bft) O-SO 0.12 h 32 W/m 10.0 C 12.1 C 1.8 km/h (1 Bft)
22.06.2009 21:00 11.7 C 87 % 1023.1 hPa 0.0 l/m 0.1 km/h (0 Bft) O 0.02 h 12 W/m 9.7 C 11.7 C 0.7 km/h (0 Bft)
22.06.2009 22:00 11.3 C 91 % 1023.6 hPa 0.0 l/m 0.2 km/h (0 Bft) O 0.00 h 0 W/m 9.8 C 11.3 C 0.9 km/h (0 Bft)
22.06.2009 23:00 11.0 C 93 % 1023.5 hPa 0.0 l/m 0.9 km/h (0 Bft) O 0.00 h 0 W/m 9.9 C 11.0 C 1.8 km/h (1 Bft)
23.06.2009 00:00 10.9 C 95 % 1023.3 hPa 0.0 l/m 0.1 km/h (0 Bft) O 0.00 h 0 W/m 10.1 C 10.9 C 0.6 km/h (0 Bft)
23.06.2009 01:00 10.8 C 96 % 1023.0 hPa 0.0 l/m 0.2 km/h (0 Bft) O 0.00 h 0 W/m 10.2 C 10.8 C 0.7 km/h (0 Bft)
23.06.2009 02:00 10.8 C 96 % 1022.5 hPa 0.0 l/m 0.3 km/h (0 Bft) N-NO 0.00 h 0 W/m 10.2 C 10.8 C 1.0 km/h (0 Bft)
23.06.2009 03:00 10.9 C 97 % 1021.8 hPa 0.0 l/m 0.2 km/h (0 Bft) N-NO 0.00 h 0 W/m 10.4 C 10.9 C 0.7 km/h (0 Bft)
23.06.2009 04:00 10.9 C 97 % 1021.8 hPa 0.4 l/m 0.0 km/h (0 Bft) N 0.00 h 0 W/m 10.4 C 10.9 C 0.4 km/h (0 Bft)
23.06.2009 05:00 11.1 C 97 % 1021.6 hPa 0.0 l/m 0.3 km/h (0 Bft) N-NO 0.00 h 6 W/m 10.6 C 11.1 C 1.2 km/h (1 Bft)
23.06.2009 06:00 11.1 C 97 % 1021.6 hPa 0.0 l/m 0.8 km/h (0 Bft) N 0.00 h 11 W/m 10.7 C 11.1 C 2.2 km/h (1 Bft)
23.06.2009 07:00 11.5 C 98 % 1021.8 hPa 0.0 l/m 1.8 km/h (1 Bft) NW 0.12 h 100 W/m 11.1 C 11.5 C 3.4 km/h (1 Bft)
23.06.2009 08:00 13.4 C 97 % 1021.5 hPa 0.0 l/m 2.7 km/h (1 Bft) N-NW 0.83 h 298 W/m 12.8 C 13.4 C 5.4 km/h (1 Bft)
23.06.2009 09:00 15.3 C 78 % 1021.2 hPa 0.0 l/m 5.4 km/h (1 Bft) N 0.57 h 352 W/m 11.4 C 15.3 C 10.8 km/h (2 Bft)
23.06.2009 10:00 15.7 C 70 % 1021.1 hPa 0.0 l/m 8.1 km/h (2 Bft) N-NW 0.00 h 258 W/m 10.2 C 15.7 C 14.8 km/h (3 Bft)
23.06.2009 11:00 14.7 C 76 % 1021.3 hPa 0.0 l/m 6.9 km/h (2 Bft) O-SO 0.00 h 242 W/m 10.6 C 14.7 C 10.3 km/h (2 Bft)
23.06.2009 12:00 14.5 C 81 % 1021.4 hPa 0.0 l/m 4.7 km/h (1 Bft) O-SO 0.32 h 378 W/m 11.4 C 14.5 C 7.7 km/h (2 Bft)
23.06.2009 13:00 16.6 C 68 % 1021.0 hPa 0.0 l/m 5.3 km/h (1 Bft) NO 0.60 h 546 W/m 10.5 C 16.6 C 11.0 km/h (2 Bft)
23.06.2009 14:00 16.3 C 68 % 1020.7 hPa 0.0 l/m 4.6 km/h (1 Bft) O-SO 0.30 h 424 W/m 10.5 C 16.3 C 9.2 km/h (2 Bft)
23.06.2009 15:00 15.6 C 73 % 1020.9 hPa 0.0 l/m 5.9 km/h (2 Bft) N-NW 0.00 h 193 W/m 10.7 C 15.6 C 11.5 km/h (2 Bft)
23.06.2009 16:00 14.7 C 79 % 1020.9 hPa 0.0 l/m 3.4 km/h (1 Bft) N 0.00 h 142 W/m 11.0 C 14.7 C 7.1 km/h (2 Bft)
23.06.2009 17:00 14.3 C 78 % 1020.8 hPa 0.0 l/m 2.2 km/h (1 Bft) N-NO 0.00 h 100 W/m 10.5 C 14.3 C 5.0 km/h (1 Bft)
23.06.2009 18:00 13.9 C 83 % 1020.5 hPa 0.4 l/m 2.3 km/h (1 Bft) O-SO 0.00 h 53 W/m 11.0 C 13.9 C 4.8 km/h (1 Bft)
23.06.2009 19:00 13.1 C 89 % 1020.4 hPa 0.2 l/m 0.7 km/h (0 Bft) O-SO 0.00 h 22 W/m 11.3 C 13.1 C 2.0 km/h (1 Bft)
23.06.2009 20:00 12.9 C 92 % 1020.2 hPa 0.2 l/m 0.0 km/h (0 Bft) O-SO 0.00 h 11 W/m 11.5 C 12.9 C 0.5 km/h (0 Bft)
23.06.2009 21:00 12.7 C 93 % 1020.0 hPa 0.2 l/m 0.1 km/h (0 Bft) O-SO 0.00 h 0 W/m 11.6 C 12.7 C 0.7 km/h (0 Bft)
23.06.2009 22:00 12.5 C 94 % 1020.1 hPa 0.0 l/m 0.5 km/h (0 Bft) N-NW 0.00 h 0 W/m 11.6 C 12.5 C 1.5 km/h (1 Bft)
23.06.2009 23:00 12.5 C 95 % 1020.1 hPa 0.0 l/m 0.0 km/h (0 Bft) N-NW 0.00 h 0 W/m 11.7 C 12.5 C 0.3 km/h (0 Bft)
24.06.2009 00:00 12.4 C 96 % 1019.7 hPa 0.0 l/m 0.1 km/h (0 Bft) NO 0.00 h 0 W/m 11.8 C 12.4 C 0.4 km/h (0 Bft)
24.06.2009 01:00 12.4 C 96 % 1019.1 hPa 0.0 l/m 0.4 km/h (0 Bft) NO 0.00 h 0 W/m 11.8 C 12.4 C 1.8 km/h (1 Bft)
24.06.2009 02:00 12.3 C 95 % 1018.3 hPa 0.0 l/m 0.9 km/h (0 Bft) NO 0.00 h 0 W/m 11.5 C 12.3 C 3.0 km/h (1 Bft)
24.06.2009 03:00 12.1 C 94 % 1017.7 hPa 0.0 l/m 0.6 km/h (0 Bft) O 0.00 h 0 W/m 11.2 C 12.1 C 2.0 km/h (1 Bft)
24.06.2009 04:00 11.9 C 94 % 1017.0 hPa 0.0 l/m 0.5 km/h (0 Bft) O-NO 0.00 h 0 W/m 11.0 C 11.9 C 2.1 km/h (1 Bft)
24.06.2009 05:00 11.7 C 94 % 1016.3 hPa 0.0 l/m 0.4 km/h (0 Bft) SO 0.03 h 12 W/m 10.8 C 11.7 C 1.4 km/h (1 Bft)
24.06.2009 06:00 11.4 C 95 % 1016.1 hPa 0.0 l/m 0.3 km/h (0 Bft) SO 0.00 h 46 W/m 10.6 C 11.4 C 0.8 km/h (0 Bft)
24.06.2009 07:00 12.3 C 96 % 1016.0 hPa 0.0 l/m 1.1 km/h (0 Bft) O-SO 0.12 h 111 W/m 11.7 C 12.3 C 2.6 km/h (1 Bft)
24.06.2009 08:00 13.7 C 91 % 1015.8 hPa 0.0 l/m 2.2 km/h (1 Bft) O 0.05 h 182 W/m 12.3 C 13.7 C 4.8 km/h (1 Bft)
24.06.2009 09:00 15.2 C 84 % 1015.7 hPa 0.0 l/m 1.9 km/h (1 Bft) SO 0.33 h 311 W/m 12.4 C 15.2 C 4.9 km/h (1 Bft)
24.06.2009 10:00 16.7 C 74 % 1015.1 hPa 0.0 l/m 5.2 km/h (1 Bft) O-SO 0.57 h 463 W/m 12.1 C 16.7 C 9.5 km/h (2 Bft)
24.06.2009 11:00 17.2 C 74 % 1014.9 hPa 0.0 l/m 7.2 km/h (2 Bft) O-SO 0.43 h 483 W/m 12.5 C 17.2 C 12.0 km/h (2 Bft)
24.06.2009 12:00 18.8 C 72 % 1014.4 hPa 0.0 l/m 6.5 km/h (2 Bft) O-SO 0.98 h 784 W/m 13.5 C 18.8 C 11.6 km/h (2 Bft)
24.06.2009 13:00 20.0 C 69 % 1013.8 hPa 0.0 l/m 9.3 km/h (2 Bft) O-SO 1.00 h 915 W/m 14.1 C 20.0 C 15.2 km/h (3 Bft)
24.06.2009 14:00 20.6 C 68 % 1013.2 hPa 0.0 l/m 12.7 km/h (3 Bft) O-SO 1.00 h 833 W/m 14.4 C 20.6 C 19.7 km/h (3 Bft)
24.06.2009 15:00 20.0 C 68 % 1013.3 hPa 0.2 l/m 10.7 km/h (2 Bft) O-SO 0.33 h 453 W/m 14.0 C 20.0 C 16.7 km/h (3 Bft)
24.06.2009 16:00 19.5 C 70 % 1013.5 hPa 0.0 l/m 8.9 km/h (2 Bft) O-SO 0.03 h 288 W/m 13.9 C 19.5 C 15.2 km/h (3 Bft)
24.06.2009 17:00 19.0 C 71 % 1013.5 hPa 0.0 l/m 9.9 km/h (2 Bft) O-SO 0.25 h 265 W/m 13.7 C 19.0 C 17.2 km/h (3 Bft)
24.06.2009 18:00 18.6 C 73 % 1013.5 hPa 0.0 l/m 5.9 km/h (2 Bft) O-SO 0.00 h 143 W/m 13.7 C 18.6 C 11.5 km/h (2 Bft)
24.06.2009 19:00 18.1 C 74 % 1013.6 hPa 0.0 l/m 4.3 km/h (1 Bft) O-SO 0.08 h 134 W/m 13.4 C 18.1 C 8.9 km/h (2 Bft)
24.06.2009 20:00 17.6 C 77 % 1013.4 hPa 0.0 l/m 3.6 km/h (1 Bft) O-SO 0.65 h 73 W/m 13.4 C 17.6 C 7.9 km/h (2 Bft)
24.06.2009 21:00 17.0 C 79 % 1013.2 hPa 0.0 l/m 2.6 km/h (1 Bft) O-SO 0.05 h 12 W/m 13.4 C 17.0 C 5.4 km/h (1 Bft)
24.06.2009 22:00 16.6 C 82 % 1013.4 hPa 0.0 l/m 1.1 km/h (1 Bft) O 0.00 h 0 W/m 13.5 C 16.6 C 3.5 km/h (1 Bft)
24.06.2009 23:00 16.4 C 82 % 1013.0 hPa 0.0 l/m 0.2 km/h (0 Bft) N-NO 0.00 h 0 W/m 13.3 C 16.4 C 1.1 km/h (1 Bft)
25.06.2009 00:00 16.2 C 83 % 1012.4 hPa 0.0 l/m 1.2 km/h (1 Bft) N-NO 0.00 h 0 W/m 13.4 C 16.2 C 3.3 km/h (1 Bft)
25.06.2009 01:00 16.4 C 83 % 1011.9 hPa 0.0 l/m 1.9 km/h (1 Bft) NO 0.00 h 0 W/m 13.5 C 16.4 C 4.9 km/h (1 Bft)
25.06.2009 02:00 16.5 C 83 % 1011.6 hPa 0.0 l/m 2.1 km/h (1 Bft) O-SO 0.00 h 0 W/m 13.6 C 16.5 C 5.0 km/h (1 Bft)
25.06.2009 03:00 16.6 C 83 % 1011.4 hPa 0.0 l/m 1.6 km/h (1 Bft) O-SO 0.00 h 0 W/m 13.7 C 16.6 C 3.9 km/h (1 Bft)
25.06.2009 04:00 16.4 C 83 % 1011.0 hPa 0.0 l/m 2.2 km/h (1 Bft) O 0.00 h 0 W/m 13.5 C 16.4 C 4.6 km/h (1 Bft)
25.06.2009 05:00 16.2 C 84 % 1011.2 hPa 0.0 l/m 0.8 km/h (0 Bft) SO 0.00 h 5 W/m 13.6 C 16.2 C 2.3 km/h (1 Bft)
25.06.2009 06:00 16.1 C 85 % 1010.9 hPa 0.0 l/m 0.9 km/h (0 Bft) O-SO 0.00 h 13 W/m 13.6 C 16.1 C 2.2 km/h (1 Bft)
25.06.2009 07:00 16.1 C 86 % 1011.0 hPa 0.0 l/m 1.0 km/h (0 Bft) O-SO 0.00 h 33 W/m 13.8 C 16.1 C 2.4 km/h (1 Bft)
25.06.2009 08:00 16.3 C 85 % 1011.1 hPa 0.0 l/m 3.3 km/h (1 Bft) O-SO 0.00 h 95 W/m 13.8 C 16.3 C 5.8 km/h (2 Bft)
25.06.2009 09:00 17.3 C 82 % 1011.0 hPa 0.0 l/m 5.0 km/h (1 Bft) O-SO 0.38 h 358 W/m 14.2 C 17.3 C 8.3 km/h (2 Bft)
25.06.2009 10:00 18.9 C 76 % 1010.7 hPa 0.0 l/m 7.5 km/h (2 Bft) O-SO 0.60 h 428 W/m 14.5 C 18.9 C 12.0 km/h (2 Bft)
25.06.2009 11:00 19.7 C 73 % 1010.6 hPa 0.0 l/m 6.8 km/h (2 Bft) O-SO 0.67 h 598 W/m 14.8 C 19.7 C 10.8 km/h (2 Bft)
25.06.2009 12:00 21.1 C 68 % 1010.2 hPa 0.0 l/m 7.0 km/h (2 Bft) O-SO 0.47 h 535 W/m 15.0 C 21.1 C 11.9 km/h (2 Bft)
25.06.2009 13:00 21.7 C 66 % 1010.0 hPa 0.0 l/m 6.8 km/h (2 Bft) O-SO 0.55 h 529 W/m 15.1 C 21.7 C 11.1 km/h (2 Bft)
25.06.2009 14:00 22.5 C 64 % 1009.5 hPa 0.0 l/m 6.2 km/h (2 Bft) O-SO 0.58 h 700 W/m 15.4 C 22.5 C 10.7 km/h (2 Bft)
25.06.2009 15:00 23.7 C 60 % 1008.7 hPa 0.0 l/m 5.5 km/h (1 Bft) SO 0.90 h 767 W/m 15.6 C 23.7 C 9.9 km/h (2 Bft)
25.06.2009 16:00 24.0 C 58 % 1008.0 hPa 0.0 l/m 4.8 km/h (1 Bft) O-SO 0.87 h 625 W/m 15.2 C 24.0 C 8.5 km/h (2 Bft)
25.06.2009 17:00 24.5 C 58 % 1007.3 hPa 0.0 l/m 3.2 km/h (1 Bft) SO 0.82 h 498 W/m 15.6 C 24.5 C 5.9 km/h (2 Bft)
25.06.2009 18:00 24.3 C 57 % 1007.2 hPa 0.0 l/m 2.1 km/h (1 Bft) O-SO 0.72 h 289 W/m 15.3 C 24.3 C 4.2 km/h (1 Bft)
25.06.2009 19:00 24.6 C 57 % 1007.2 hPa 0.0 l/m 0.8 km/h (0 Bft) O-SO 0.77 h 177 W/m 15.4 C 24.6 C 2.6 km/h (1 Bft)
25.06.2009 20:00 23.9 C 60 % 1007.2 hPa 0.0 l/m 0.2 km/h (0 Bft) O 0.08 h 31 W/m 15.5 C 23.9 C 1.4 km/h (1 Bft)
25.06.2009 21:00 21.5 C 69 % 1007.7 hPa 0.0 l/m 1.6 km/h (1 Bft) N-NW 0.00 h 6 W/m 15.6 C 21.5 C 3.5 km/h (1 Bft)
25.06.2009 22:00 20.0 C 73 % 1008.3 hPa 1.0 l/m 5.2 km/h (1 Bft) NO 0.00 h 0 W/m 15.1 C 20.0 C 11.1 km/h (2 Bft)
25.06.2009 23:00 18.2 C 87 % 1008.9 hPa 3.2 l/m 3.5 km/h (1 Bft) O-SO 0.00 h 0 W/m 16.0 C 18.2 C 6.7 km/h (2 Bft)
26.06.2009 00:00 17.4 C 92 % 1008.9 hPa 1.4 l/m 0.3 km/h (0 Bft) W-SW 0.00 h 0 W/m 16.0 C 17.4 C 1.2 km/h (1 Bft)
26.06.2009 01:00 17.2 C 93 % 1008.8 hPa 0.0 l/m 0.0 km/h (0 Bft) N 0.00 h 0 W/m 16.1 C 17.2 C 0.3 km/h (0 Bft)
26.06.2009 02:00 16.8 C 95 % 1008.4 hPa 0.0 l/m 0.6 km/h (0 Bft) O-SO 0.00 h 0 W/m 16.0 C 16.8 C 1.3 km/h (1 Bft)
26.06.2009 03:00 16.2 C 95 % 1008.4 hPa 0.0 l/m 0.6 km/h (0 Bft) O-SO 0.00 h 0 W/m 15.4 C 16.2 C 1.2 km/h (1 Bft)
26.06.2009 04:00 15.7 C 96 % 1008.7 hPa 0.0 l/m 0.2 km/h (0 Bft) O-SO 0.00 h 0 W/m 15.1 C 15.7 C 0.7 km/h (0 Bft)
26.06.2009 05:00 15.7 C 97 % 1008.8 hPa 0.0 l/m 0.0 km/h (0 Bft) N 0.00 h 7 W/m 15.2 C 15.7 C 0.2 km/h (0 Bft)
26.06.2009 06:00 15.7 C 97 % 1008.9 hPa 0.0 l/m 0.0 km/h (0 Bft) N 0.00 h 35 W/m 15.2 C 15.7 C 0.4 km/h (0 Bft)
26.06.2009 07:00 15.8 C 98 % 1009.2 hPa 0.0 l/m 1.1 km/h (1 Bft) W 0.00 h 87 W/m 15.5 C 15.8 C 2.5 km/h (1 Bft)
26.06.2009 08:00 16.5 C 98 % 1009.4 hPa 0.0 l/m 0.3 km/h (0 Bft) W 0.18 h 209 W/m 16.2 C 16.5 C 1.3 km/h (1 Bft)
26.06.2009 09:00 18.7 C 94 % 1009.3 hPa 0.0 l/m 0.7 km/h (0 Bft) W 0.93 h 474 W/m 17.7 C 18.7 C 2.3 km/h (1 Bft)
26.06.2009 10:00 21.0 C 83 % 1009.0 hPa 0.0 l/m 2.3 km/h (1 Bft) W 1.00 h 653 W/m 17.8 C 21.0 C 4.3 km/h (1 Bft)
26.06.2009 11:00 23.3 C 67 % 1008.7 hPa 0.0 l/m 1.9 km/h (1 Bft) SO 1.00 h 775 W/m 16.6 C 23.3 C 3.9 km/h (1 Bft)
26.06.2009 12:00 24.8 C 58 % 1008.4 hPa 0.0 l/m 3.0 km/h (1 Bft) N-NO 1.00 h 893 W/m 16.0 C 24.8 C 5.8 km/h (2 Bft)
26.06.2009 13:00 25.4 C 57 % 1008.2 hPa 0.0 l/m 6.8 km/h (2 Bft) N-NW 0.85 h 826 W/m 16.2 C 25.4 C 10.8 km/h (2 Bft)
26.06.2009 14:00 23.7 C 62 % 1008.5 hPa 0.0 l/m 8.4 km/h (2 Bft) S-SO 0.63 h 760 W/m 15.8 C 23.7 C 15.6 km/h (3 Bft)
26.06.2009 15:00 20.9 C 72 % 1009.3 hPa 0.0 l/m 7.8 km/h (2 Bft) S-SO 0.38 h 436 W/m 15.7 C 20.9 C 14.8 km/h (3 Bft)
26.06.2009 16:00 22.1 C 69 % 1009.2 hPa 0.0 l/m 4.7 km/h (1 Bft) S-SO 0.88 h 642 W/m 16.1 C 22.1 C 8.8 km/h (2 Bft)
26.06.2009 17:00 22.4 C 70 % 1009.0 hPa 0.0 l/m 3.4 km/h (1 Bft) S-SO 0.77 h 395 W/m 16.7 C 22.4 C 7.2 km/h (2 Bft)
26.06.2009 18:00 22.3 C 70 % 1008.7 hPa 0.0 l/m 2.2 km/h (1 Bft) S-SO 0.92 h 368 W/m 16.6 C 22.3 C 5.2 km/h (1 Bft)
26.06.2009 19:00 22.3 C 71 % 1008.7 hPa 0.0 l/m 1.7 km/h (1 Bft) S 0.57 h 156 W/m 16.8 C 22.3 C 4.7 km/h (1 Bft)
26.06.2009 20:00 21.2 C 73 % 1009.2 hPa 0.0 l/m 2.8 km/h (1 Bft) S-SO 0.00 h 41 W/m 16.2 C 21.2 C 5.5 km/h (1 Bft)
26.06.2009 21:00 20.1 C 77 % 1009.8 hPa 0.0 l/m 3.1 km/h (1 Bft) W 0.00 h 8 W/m 15.8 C 20.1 C 6.0 km/h (2 Bft)
26.06.2009 22:00 19.3 C 76 % 1010.8 hPa 0.0 l/m 4.5 km/h (1 Bft) W 0.00 h 0 W/m 14.9 C 19.3 C 7.7 km/h (2 Bft)
26.06.2009 23:00 18.5 C 78 % 1010.8 hPa 0.0 l/m 4.3 km/h (1 Bft) W 0.00 h 0 W/m 14.7 C 18.5 C 8.0 km/h (2 Bft)
27.06.2009 00:00 17.7 C 80 % 1010.9 hPa 0.0 l/m 1.2 km/h (1 Bft) W-SW 0.00 h 0 W/m 14.2 C 17.7 C 2.9 km/h (1 Bft)
27.06.2009 01:00 16.9 C 83 % 1011.4 hPa 0.0 l/m 0.1 km/h (0 Bft) W-SW 0.00 h 0 W/m 13.9 C 16.9 C 0.7 km/h (0 Bft)
27.06.2009 02:00 16.4 C 85 % 1011.8 hPa 0.0 l/m 1.2 km/h (1 Bft) W-SW 0.00 h 0 W/m 13.8 C 16.4 C 3.1 km/h (1 Bft)
27.06.2009 03:00 16.4 C 85 % 1011.9 hPa 1.0 l/m 1.6 km/h (1 Bft) W-NW 0.00 h 0 W/m 13.9 C 16.4 C 3.2 km/h (1 Bft)
27.06.2009 04:00 16.3 C 89 % 1011.7 hPa 1.0 l/m 0.6 km/h (0 Bft) S-SO 0.00 h 0 W/m 14.4 C 16.3 C 1.5 km/h (1 Bft)
27.06.2009 05:00 16.1 C 92 % 1011.7 hPa 0.0 l/m 1.0 km/h (0 Bft) S-SO 0.00 h 0 W/m 14.7 C 16.1 C 3.1 km/h (1 Bft)
27.06.2009 06:00 16.0 C 93 % 1011.8 hPa 0.0 l/m 0.3 km/h (0 Bft) S 0.00 h 28 W/m 14.8 C 16.0 C 1.2 km/h (1 Bft)
27.06.2009 07:00 16.2 C 94 % 1012.1 hPa 0.0 l/m 0.9 km/h (0 Bft) W 0.00 h 23 W/m 15.2 C 16.2 C 2.9 km/h (1 Bft)
27.06.2009 08:00 16.4 C 95 % 1012.6 hPa 1.8 l/m 0.7 km/h (0 Bft) W-SW 0.00 h 46 W/m 15.6 C 16.4 C 2.5 km/h (1 Bft)
27.06.2009 09:00 16.8 C 96 % 1012.9 hPa 0.0 l/m 2.1 km/h (1 Bft) W-SW 0.00 h 89 W/m 16.2 C 16.8 C 4.9 km/h (1 Bft)
27.06.2009 10:00 17.0 C 96 % 1013.0 hPa 1.0 l/m 0.4 km/h (0 Bft) SW 0.00 h 86 W/m 16.4 C 17.0 C 1.7 km/h (1 Bft)
27.06.2009 11:00 18.2 C 97 % 1012.9 hPa 0.0 l/m 0.8 km/h (0 Bft) W-SW 0.00 h 287 W/m 17.7 C 18.2 C 2.4 km/h (1 Bft)
27.06.2009 12:00 18.6 C 96 % 1013.1 hPa 1.4 l/m 2.8 km/h (1 Bft) W 0.00 h 310 W/m 18.0 C 18.6 C 5.5 km/h (1 Bft)
27.06.2009 13:00 18.7 C 96 % 1013.3 hPa 2.2 l/m 0.5 km/h (0 Bft) W 0.00 h 214 W/m 18.0 C 18.7 C 1.5 km/h (1 Bft)
27.06.2009 14:00 18.7 C 93 % 1013.5 hPa 0.8 l/m 2.1 km/h (1 Bft) SO 0.00 h 184 W/m 17.5 C 18.7 C 3.7 km/h (1 Bft)
27.06.2009 15:00 19.2 C 91 % 1013.3 hPa 0.0 l/m 1.5 km/h (1 Bft) SO 0.03 h 342 W/m 17.6 C 19.2 C 3.3 km/h (1 Bft)
27.06.2009 16:00 20.4 C 91 % 1013.0 hPa 0.0 l/m 2.3 km/h (1 Bft) W-NW 0.57 h 509 W/m 18.8 C 20.4 C 4.1 km/h (1 Bft)
27.06.2009 17:00 20.5 C 89 % 1012.9 hPa 0.2 l/m 4.6 km/h (1 Bft) W 0.67 h 434 W/m 18.6 C 20.5 C 8.2 km/h (2 Bft)
27.06.2009 18:00 20.8 C 82 % 1013.1 hPa 0.0 l/m 4.0 km/h (1 Bft) W-NW 0.52 h 237 W/m 17.6 C 20.8 C 6.8 km/h (2 Bft)
27.06.2009 19:00 20.0 C 81 % 1013.0 hPa 0.0 l/m 2.5 km/h (1 Bft) W-NW 0.05 h 101 W/m 16.8 C 20.0 C 4.5 km/h (1 Bft)
27.06.2009 20:00 19.4 C 84 % 1013.4 hPa 0.0 l/m 0.3 km/h (0 Bft) W-NW 0.00 h 56 W/m 16.5 C 19.4 C 1.3 km/h (1 Bft)
27.06.2009 21:00 18.7 C 85 % 1013.7 hPa 0.0 l/m 0.1 km/h (0 Bft) S-SO 0.05 h 12 W/m 16.1 C 18.7 C 0.7 km/h (0 Bft)
27.06.2009 22:00 17.9 C 88 % 1014.4 hPa 0.0 l/m 0.3 km/h (0 Bft) S 0.00 h 0 W/m 15.9 C 17.9 C 0.8 km/h (0 Bft)
27.06.2009 23:00 17.2 C 92 % 1014.6 hPa 0.0 l/m 0.1 km/h (0 Bft) S 0.00 h 0 W/m 15.8 C 17.2 C 0.5 km/h (0 Bft)
28.06.2009 00:00 16.6 C 94 % 1014.6 hPa 0.0 l/m 0.4 km/h (0 Bft) S 0.00 h 0 W/m 15.5 C 16.6 C 0.8 km/h (0 Bft)
28.06.2009 01:00 15.9 C 95 % 1014.5 hPa 0.0 l/m 0.7 km/h (0 Bft) S 0.00 h 0 W/m 15.0 C 15.9 C 1.4 km/h (1 Bft)
28.06.2009 02:00 15.7 C 96 % 1014.4 hPa 0.0 l/m 0.2 km/h (0 Bft) S 0.00 h 0 W/m 15.1 C 15.7 C 0.5 km/h (0 Bft)
28.06.2009 03:00 15.9 C 97 % 1014.1 hPa 0.0 l/m 0.0 km/h (0 Bft) N 0.00 h 0 W/m 15.4 C 15.9 C 0.1 km/h (0 Bft)
28.06.2009 04:00 16.1 C 97 % 1014.0 hPa 0.0 l/m 0.0 km/h (0 Bft) S 0.00 h 0 W/m 15.6 C 16.1 C 0.2 km/h (0 Bft)
28.06.2009 05:00 16.0 C 97 % 1013.9 hPa 0.0 l/m 0.3 km/h (0 Bft) S-SO 0.00 h 6 W/m 15.6 C 16.0 C 1.5 km/h (1 Bft)
28.06.2009 06:00 16.0 C 98 % 1014.0 hPa 0.0 l/m 0.2 km/h (0 Bft) SO 0.00 h 34 W/m 15.6 C 16.0 C 0.8 km/h (0 Bft)
28.06.2009 07:00 16.6 C 98 % 1013.8 hPa 0.0 l/m 1.1 km/h (0 Bft) N-NW 0.22 h 131 W/m 16.3 C 16.6 C 2.5 km/h (1 Bft)
28.06.2009 08:00 17.5 C 95 % 1013.8 hPa 0.0 l/m 1.5 km/h (1 Bft) W-NW 0.33 h 219 W/m 16.7 C 17.5 C 3.3 km/h (1 Bft)
28.06.2009 09:00 18.6 C 89 % 1014.0 hPa 0.0 l/m 1.2 km/h (1 Bft) W-NW 0.22 h 286 W/m 16.7 C 18.6 C 2.4 km/h (1 Bft)
28.06.2009 10:00 21.0 C 80 % 1013.9 hPa 0.0 l/m 1.7 km/h (1 Bft) W-NW 0.77 h 565 W/m 17.3 C 21.0 C 4.0 km/h (1 Bft)
28.06.2009 11:00 22.5 C 71 % 1013.4 hPa 0.0 l/m 3.7 km/h (1 Bft) O-SO 1.00 h 803 W/m 16.9 C 22.5 C 6.6 km/h (2 Bft)
28.06.2009 12:00 23.8 C 66 % 1013.0 hPa 0.0 l/m 3.6 km/h (1 Bft) SO 1.00 h 857 W/m 17.0 C 23.8 C 6.5 km/h (2 Bft)
28.06.2009 13:00 24.9 C 62 % 1012.7 hPa 0.0 l/m 3.4 km/h (1 Bft) O-SO 1.00 h 906 W/m 17.1 C 24.9 C 6.3 km/h (2 Bft)
28.06.2009 14:00 25.6 C 58 % 1012.5 hPa 0.0 l/m 4.1 km/h (1 Bft) O-SO 0.97 h 882 W/m 16.7 C 25.6 C 7.3 km/h (2 Bft)
28.06.2009 15:00 26.2 C 55 % 1012.3 hPa 0.0 l/m 3.8 km/h (1 Bft) O-SO 0.92 h 778 W/m 16.5 C 26.2 C 6.8 km/h (2 Bft)
28.06.2009 16:00 26.5 C 53 % 1012.2 hPa 0.0 l/m 3.4 km/h (1 Bft) O-SO 0.90 h 646 W/m 16.3 C 26.5 C 6.6 km/h (2 Bft)
28.06.2009 17:00 26.5 C 54 % 1012.0 hPa 0.0 l/m 4.2 km/h (1 Bft) W-NW 0.67 h 425 W/m 16.5 C 26.5 C 7.1 km/h (2 Bft)
28.06.2009 18:00 24.8 C 63 % 1012.2 hPa 0.0 l/m 5.1 km/h (1 Bft) W-NW 0.08 h 136 W/m 17.3 C 24.8 C 8.5 km/h (2 Bft)
28.06.2009 19:00 24.2 C 68 % 1012.2 hPa 0.0 l/m 2.0 km/h (1 Bft) N-NW 0.10 h 99 W/m 17.9 C 24.2 C 3.5 km/h (1 Bft)
28.06.2009 20:00 23.7 C 70 % 1012.5 hPa 0.0 l/m 0.5 km/h (0 Bft) N-NW 0.00 h 33 W/m 17.9 C 23.7 C 1.2 km/h (1 Bft)
28.06.2009 21:00 22.1 C 77 % 1013.0 hPa 0.0 l/m 1.2 km/h (1 Bft) O-SO 0.02 h 9 W/m 17.9 C 22.1 C 2.1 km/h (1 Bft)
28.06.2009 22:00 21.1 C 80 % 1013.5 hPa 0.0 l/m 2.2 km/h (1 Bft) O 0.00 h 0 W/m 17.6 C 21.1 C 5.3 km/h (1 Bft)
28.06.2009 23:00 20.8 C 83 % 1013.8 hPa 1.4 l/m 3.1 km/h (1 Bft) N 0.00 h 0 W/m 17.7 C 20.8 C 6.6 km/h (2 Bft)
Min-Datum _ 22.06.09 22.06.09 25.06.09 - 22.06.09 - - - 22.06.09 22.06.09 22.06.09
_ Min-Zeit 06:00 16:14 17:45 - 00:00 - - - 16:14 05:35 00:00
Minimum _ 10.5 C 47 % 1007.1 hPa - 0.0 km/h (0 Bft) - - - 6.0 C 10.6 C 0.0 km/h (0 Bft)
Max-Datum _ 28.06.09 23.06.09 22.06.09 25.06.09 22.06.09 - 22.06.09 26.06.09 27.06.09 28.06.09 22.06.09
_ Max-Zeit 16:07 07:27 22:30 23:22 16:47 - 08:16 14:36 16:40 16:06 14:28
Maximum _ 27.3 C 98 % 1023.6 hPa 3.2 l/m 24.3 km/h
SO (4 Bft)
- 0.02 h 1162 W/m 19.7 C 27.3 C 34.8 km/h
N-NW (5 Bft)
Durchschnitt _ 17.2 C 82 % 1014.7 hPa #22.6 l/m 2.6 km/h (1 Bft) O-SO #38:37 h 301 W/m 13.8 C 17.2 C 5.0 km/h (1 Bft)
© Kaiko 2009